sensor_id;sensor_type;location;lat;lon;timestamp;pressure;altitude;pressure_sealevel;temperature;humidity
40117;BME280;25829;50.228;18.936;2022-07-29T00:00:56;98829.47;;;17.42;51.87
40117;BME280;25829;50.228;18.936;2022-07-29T00:03:57;98825.16;;;17.41;51.90
40117;BME280;25829;50.228;18.936;2022-07-29T00:06:57;98818.47;;;17.39;51.76
40117;BME280;25829;50.228;18.936;2022-07-29T00:09:58;98820.81;;;17.35;51.71
40117;BME280;25829;50.228;18.936;2022-07-29T00:12:59;98818.06;;;17.30;51.92
40117;BME280;25829;50.228;18.936;2022-07-29T00:16:00;98816.94;;;17.26;51.81
40117;BME280;25829;50.228;18.936;2022-07-29T00:19:00;98811.75;;;17.19;52.28
40117;BME280;25829;50.228;18.936;2022-07-29T00:22:01;98812.72;;;17.13;52.53
40117;BME280;25829;50.228;18.936;2022-07-29T00:25:02;98804.72;;;17.13;52.45
40117;BME280;25829;50.228;18.936;2022-07-29T00:28:03;98804.63;;;17.08;52.94
40117;BME280;25829;50.228;18.936;2022-07-29T00:31:04;98807.50;;;17.07;52.69
40117;BME280;25829;50.228;18.936;2022-07-29T00:34:05;98804.84;;;17.07;52.50
40117;BME280;25829;50.228;18.936;2022-07-29T00:37:25;98804.28;;;17.05;52.75
40117;BME280;25829;50.228;18.936;2022-07-29T00:40:26;98804.28;;;17.05;52.64
40117;BME280;25829;50.228;18.936;2022-07-29T00:43:27;98803.25;;;17.06;52.60
40117;BME280;25829;50.228;18.936;2022-07-29T00:46:28;98800.34;;;17.07;52.62
40117;BME280;25829;50.228;18.936;2022-07-29T00:49:29;98804.63;;;17.08;52.70
40117;BME280;25829;50.228;18.936;2022-07-29T00:52:29;98795.25;;;17.06;52.84
40117;BME280;25829;50.228;18.936;2022-07-29T00:55:31;98794.59;;;16.98;52.52
40117;BME280;25829;50.228;18.936;2022-07-29T00:58:32;98793.78;;;16.98;52.55
40117;BME280;25829;50.228;18.936;2022-07-29T01:01:33;98785.00;;;16.97;52.67
40117;BME280;25829;50.228;18.936;2022-07-29T01:04:34;98781.53;;;16.97;52.32
40117;BME280;25829;50.228;18.936;2022-07-29T01:07:36;98782.00;;;16.94;52.17
40117;BME280;25829;50.228;18.936;2022-07-29T01:10:38;98782.69;;;16.89;52.05
40117;BME280;25829;50.228;18.936;2022-07-29T01:13:39;98782.94;;;16.88;52.14
40117;BME280;25829;50.228;18.936;2022-07-29T01:17:04;98776.97;;;16.81;52.18
40117;BME280;25829;50.228;18.936;2022-07-29T01:20:49;98775.38;;;16.80;51.92
40117;BME280;25829;50.228;18.936;2022-07-29T01:29:58;98783.59;;;16.78;51.61
40117;BME280;25829;50.228;18.936;2022-07-29T01:33:03;98774.19;;;16.75;51.52
40117;BME280;25829;50.228;18.936;2022-07-29T01:36:10;98771.00;;;16.73;51.39
40117;BME280;25829;50.228;18.936;2022-07-29T01:39:28;98758.13;;;16.70;51.37
40117;BME280;25829;50.228;18.936;2022-07-29T01:42:36;98768.47;;;16.67;51.49
40117;BME280;25829;50.228;18.936;2022-07-29T01:45:43;98771.13;;;16.67;51.45
40117;BME280;25829;50.228;18.936;2022-07-29T01:48:46;98762.66;;;16.70;51.07
40117;BME280;25829;50.228;18.936;2022-07-29T01:51:54;98769.38;;;16.72;50.94
40117;BME280;25829;50.228;18.936;2022-07-29T01:54:59;98764.84;;;16.73;50.74
40117;BME280;25829;50.228;18.936;2022-07-29T01:58:04;98759.28;;;16.74;50.63
40117;BME280;25829;50.228;18.936;2022-07-29T02:01:08;98757.41;;;16.75;50.59
40117;BME280;25829;50.228;18.936;2022-07-29T02:04:10;98758.47;;;16.74;50.45
40117;BME280;25829;50.228;18.936;2022-07-29T02:07:17;98760.56;;;16.72;50.30
40117;BME280;25829;50.228;18.936;2022-07-29T02:10:21;98759.75;;;16.71;50.13
40117;BME280;25829;50.228;18.936;2022-07-29T02:13:24;98754.41;;;16.71;50.15
40117;BME280;25829;50.228;18.936;2022-07-29T02:16:29;98753.41;;;16.72;50.10
40117;BME280;25829;50.228;18.936;2022-07-29T02:19:32;98757.09;;;16.71;49.97
40117;BME280;25829;50.228;18.936;2022-07-29T02:22:35;98754.91;;;16.68;49.83
40117;BME280;25829;50.228;18.936;2022-07-29T02:25:37;98761.88;;;16.69;49.82
40117;BME280;25829;50.228;18.936;2022-07-29T02:28:40;98752.00;;;16.70;49.72
40117;BME280;25829;50.228;18.936;2022-07-29T02:31:41;98752.50;;;16.67;49.85
40117;BME280;25829;50.228;18.936;2022-07-29T02:34:45;98742.63;;;16.67;49.61
40117;BME280;25829;50.228;18.936;2022-07-29T02:37:47;98747.38;;;16.65;49.54
40117;BME280;25829;50.228;18.936;2022-07-29T02:41:10;98748.22;;;16.66;49.48
40117;BME280;25829;50.228;18.936;2022-07-29T02:44:18;98746.34;;;16.66;49.53
40117;BME280;25829;50.228;18.936;2022-07-29T02:47:27;98742.06;;;16.65;49.54
40117;BME280;25829;50.228;18.936;2022-07-29T02:50:37;98734.91;;;16.66;49.78
40117;BME280;25829;50.228;18.936;2022-07-29T02:53:41;98730.59;;;16.65;49.46
40117;BME280;25829;50.228;18.936;2022-07-29T02:56:44;98727.38;;;16.63;49.33
40117;BME280;25829;50.228;18.936;2022-07-29T02:59:48;98730.53;;;16.60;49.16
40117;BME280;25829;50.228;18.936;2022-07-29T03:02:52;98731.00;;;16.57;49.33
40117;BME280;25829;50.228;18.936;2022-07-29T03:05:57;98735.53;;;16.56;49.43
40117;BME280;25829;50.228;18.936;2022-07-29T03:09:00;98734.78;;;16.61;49.39
40117;BME280;25829;50.228;18.936;2022-07-29T03:12:04;98732.47;;;16.64;49.73
40117;BME280;25829;50.228;18.936;2022-07-29T03:15:06;98735.22;;;16.69;49.39
40117;BME280;25829;50.228;18.936;2022-07-29T03:18:07;98738.69;;;16.70;49.40
40117;BME280;25829;50.228;18.936;2022-07-29T03:21:08;98729.66;;;16.71;49.28
40117;BME280;25829;50.228;18.936;2022-07-29T03:24:09;98726.75;;;16.72;49.26
40117;BME280;25829;50.228;18.936;2022-07-29T03:27:10;98733.09;;;16.71;49.15
40117;BME280;25829;50.228;18.936;2022-07-29T03:35:06;98734.16;;;16.70;49.37
40117;BME280;25829;50.228;18.936;2022-07-29T03:47:13;98726.97;;;16.71;49.51
40117;BME280;25829;50.228;18.936;2022-07-29T03:50:16;98724.56;;;16.69;49.52
40117;BME280;25829;50.228;18.936;2022-07-29T03:53:17;98727.22;;;16.69;49.53
40117;BME280;25829;50.228;18.936;2022-07-29T03:56:21;98724.31;;;16.71;49.50
40117;BME280;25829;50.228;18.936;2022-07-29T03:59:22;98728.09;;;16.75;49.66
40117;BME280;25829;50.228;18.936;2022-07-29T04:02:24;98732.16;;;16.78;49.86
40117;BME280;25829;50.228;18.936;2022-07-29T04:05:26;98731.69;;;16.81;49.79
40117;BME280;25829;50.228;18.936;2022-07-29T04:08:26;98732.22;;;16.83;49.85
40117;BME280;25829;50.228;18.936;2022-07-29T04:11:27;98731.75;;;16.86;49.82
40117;BME280;25829;50.228;18.936;2022-07-29T04:14:28;98729.41;;;16.89;49.77
40117;BME280;25829;50.228;18.936;2022-07-29T04:17:29;98727.06;;;16.93;49.95
40117;BME280;25829;50.228;18.936;2022-07-29T04:20:29;98730.03;;;16.96;49.81
40117;BME280;25829;50.228;18.936;2022-07-29T04:23:30;98726.91;;;16.99;49.85
40117;BME280;25829;50.228;18.936;2022-07-29T04:26:34;98738.78;;;17.09;50.03
40117;BME280;25829;50.228;18.936;2022-07-29T04:29:35;98738.66;;;17.15;49.90
40117;BME280;25829;50.228;18.936;2022-07-29T04:32:36;98740.91;;;17.24;50.01
40117;BME280;25829;50.228;18.936;2022-07-29T04:35:37;98735.16;;;17.32;49.90
40117;BME280;25829;50.228;18.936;2022-07-29T04:38:38;98724.50;;;17.32;49.74
40117;BME280;25829;50.228;18.936;2022-07-29T04:41:39;98733.53;;;17.31;49.99
40117;BME280;25829;50.228;18.936;2022-07-29T04:44:40;98728.38;;;17.24;50.10
40117;BME280;25829;50.228;18.936;2022-07-29T04:47:41;98718.75;;;17.23;50.19
40117;BME280;25829;50.228;18.936;2022-07-29T04:50:41;98718.53;;;17.25;50.19
40117;BME280;25829;50.228;18.936;2022-07-29T04:53:42;98728.47;;;17.29;50.25
40117;BME280;25829;50.228;18.936;2022-07-29T04:56:43;98717.53;;;17.31;50.25
40117;BME280;25829;50.228;18.936;2022-07-29T04:59:44;98727.16;;;17.32;50.36
40117;BME280;25829;50.228;18.936;2022-07-29T05:02:45;98724.81;;;17.35;50.53
40117;BME280;25829;50.228;18.936;2022-07-29T05:05:45;98731.81;;;17.41;50.41
40117;BME280;25829;50.228;18.936;2022-07-29T05:08:46;98718.78;;;17.45;50.37
40117;BME280;25829;50.228;18.936;2022-07-29T05:11:47;98719.13;;;17.49;50.41
40117;BME280;25829;50.228;18.936;2022-07-29T05:14:47;98723.63;;;17.48;50.38
40117;BME280;25829;50.228;18.936;2022-07-29T05:17:48;98721.28;;;17.52;50.55
40117;BME280;25829;50.228;18.936;2022-07-29T05:20:49;98724.53;;;17.54;50.42
40117;BME280;25829;50.228;18.936;2022-07-29T05:23:50;98725.72;;;17.63;50.45
40117;BME280;25829;50.228;18.936;2022-07-29T05:26:50;98718.84;;;17.67;50.39
40117;BME280;25829;50.228;18.936;2022-07-29T05:29:51;98714.66;;;17.76;50.48
40117;BME280;25829;50.228;18.936;2022-07-29T05:32:52;98719.09;;;17.87;50.38
40117;BME280;25829;50.228;18.936;2022-07-29T05:35:53;98714.91;;;17.97;50.59
40117;BME280;25829;50.228;18.936;2022-07-29T05:38:54;98717.19;;;18.05;50.56
40117;BME280;25829;50.228;18.936;2022-07-29T05:41:55;98723.69;;;18.14;51.07
40117;BME280;25829;50.228;18.936;2022-07-29T05:44:55;98722.69;;;18.20;50.54
40117;BME280;25829;50.228;18.936;2022-07-29T05:47:56;98720.63;;;18.27;50.55
40117;BME280;25829;50.228;18.936;2022-07-29T05:50:57;98718.56;;;18.34;50.45
40117;BME280;25829;50.228;18.936;2022-07-29T05:53:58;98717.84;;;18.44;50.49
40117;BME280;25829;50.228;18.936;2022-07-29T05:56:59;98709.44;;;18.57;50.90
40117;BME280;25829;50.228;18.936;2022-07-29T05:59:59;98709.25;;;18.69;50.41
40117;BME280;25829;50.228;18.936;2022-07-29T06:03:00;98715.25;;;18.81;50.53
40117;BME280;25829;50.228;18.936;2022-07-29T06:06:01;98713.44;;;18.87;50.36
40117;BME280;25829;50.228;18.936;2022-07-29T06:09:02;98712.44;;;18.93;50.40
40117;BME280;25829;50.228;18.936;2022-07-29T06:12:04;98713.56;;;19.02;50.54
40117;BME280;25829;50.228;18.936;2022-07-29T06:15:05;98706.13;;;19.09;50.28
40117;BME280;25829;50.228;18.936;2022-07-29T06:18:06;98708.59;;;19.16;50.49
40117;BME280;25829;50.228;18.936;2022-07-29T06:35:55;98722.94;;;19.95;50.38
40117;BME280;25829;50.228;18.936;2022-07-29T06:45:03;98714.69;;;20.17;50.26
40117;BME280;25829;50.228;18.936;2022-07-29T07:08:34;98715.59;;;21.04;49.75
40117;BME280;25829;50.228;18.936;2022-07-29T07:41:39;98713.69;;;22.65;47.98
40117;BME280;25829;50.228;18.936;2022-07-29T07:49:51;98709.88;;;23.58;47.18
40117;BME280;25829;50.228;18.936;2022-07-29T07:52:54;98704.69;;;23.62;46.83
40117;BME280;25829;50.228;18.936;2022-07-29T07:55:58;98709.78;;;23.64;46.89
40117;BME280;25829;50.228;18.936;2022-07-29T07:58:58;98696.78;;;23.71;46.98
40117;BME280;25829;50.228;18.936;2022-07-29T08:01:59;98684.41;;;23.70;46.64
40117;BME280;25829;50.228;18.936;2022-07-29T08:05:01;98702.91;;;23.76;46.56
40117;BME280;25829;50.228;18.936;2022-07-29T08:08:02;98706.31;;;23.82;46.44
40117;BME280;25829;50.228;18.936;2022-07-29T08:11:04;98699.75;;;23.93;46.25
40117;BME280;25829;50.228;18.936;2022-07-29T08:14:04;98704.28;;;23.98;46.24
40117;BME280;25829;50.228;18.936;2022-07-29T08:17:05;98706.31;;;24.06;46.28
40117;BME280;25829;50.228;18.936;2022-07-29T08:20:06;98704.59;;;24.15;45.84
40117;BME280;25829;50.228;18.936;2022-07-29T08:23:08;98698.47;;;24.28;45.76
40117;BME280;25829;50.228;18.936;2022-07-29T08:26:10;98697.66;;;24.47;45.68
40117;BME280;25829;50.228;18.936;2022-07-29T08:29:11;98692.47;;;24.69;45.10
40117;BME280;25829;50.228;18.936;2022-07-29T08:32:12;98691.44;;;24.98;44.65
40117;BME280;25829;50.228;18.936;2022-07-29T08:35:13;98698.81;;;25.25;44.49
40117;BME280;25829;50.228;18.936;2022-07-29T08:38:14;98689.22;;;25.60;43.73
40117;BME280;25829;50.228;18.936;2022-07-29T08:41:14;98710.84;;;26.02;43.87
40117;BME280;25829;50.228;18.936;2022-07-29T08:44:16;98711.00;;;26.55;43.43
40117;BME280;25829;50.228;18.936;2022-07-29T09:04:45;98695.16;;;29.38;40.02
40117;BME280;25829;50.228;18.936;2022-07-29T09:07:46;98690.63;;;29.51;39.45
40117;BME280;25829;50.228;18.936;2022-07-29T09:10:48;98690.94;;;29.79;39.60
40117;BME280;25829;50.228;18.936;2022-07-29T09:13:49;98692.97;;;30.12;38.50
40117;BME280;25829;50.228;18.936;2022-07-29T09:16:55;98685.69;;;30.25;37.21
40117;BME280;25829;50.228;18.936;2022-07-29T09:20:17;98693.91;;;30.37;36.55
40117;BME280;25829;50.228;18.936;2022-07-29T09:23:18;98692.53;;;30.31;37.50
40117;BME280;25829;50.228;18.936;2022-07-29T09:26:19;98691.00;;;30.21;37.37
40117;BME280;25829;50.228;18.936;2022-07-29T09:29:27;98685.09;;;29.98;36.77
40117;BME280;25829;50.228;18.936;2022-07-29T09:32:28;98680.66;;;29.85;37.29
40117;BME280;25829;50.228;18.936;2022-07-29T09:35:30;98683.03;;;29.65;37.39
40117;BME280;25829;50.228;18.936;2022-07-29T09:38:32;98661.47;;;29.60;37.51
40117;BME280;25829;50.228;18.936;2022-07-29T09:41:51;98671.38;;;29.65;35.62
40117;BME280;25829;50.228;18.936;2022-07-29T09:44:55;98674.69;;;29.70;37.78
40117;BME280;25829;50.228;18.936;2022-07-29T09:47:56;98675.34;;;29.67;36.69
40117;BME280;25829;50.228;18.936;2022-07-29T09:51:00;98673.03;;;29.78;37.66
40117;BME280;25829;50.228;18.936;2022-07-29T09:54:24;98682.09;;;30.12;35.22
40117;BME280;25829;50.228;18.936;2022-07-29T09:57:28;98669.81;;;30.06;37.89
40117;BME280;25829;50.228;18.936;2022-07-29T10:00:42;98673.16;;;29.82;35.47
40117;BME280;25829;50.228;18.936;2022-07-29T10:03:52;98678.56;;;29.61;37.42
40117;BME280;25829;50.228;18.936;2022-07-29T10:07:01;98672.78;;;29.41;37.59
40117;BME280;25829;50.228;18.936;2022-07-29T10:10:05;98667.09;;;29.17;38.00
40117;BME280;25829;50.228;18.936;2022-07-29T10:13:08;98661.09;;;28.94;38.26
40117;BME280;25829;50.228;18.936;2022-07-29T10:16:10;98656.31;;;28.73;38.35
40117;BME280;25829;50.228;18.936;2022-07-29T10:19:12;98662.00;;;28.34;37.77
40117;BME280;25829;50.228;18.936;2022-07-29T10:22:14;98662.72;;;27.91;38.34
40117;BME280;25829;50.228;18.936;2022-07-29T10:25:16;98659.28;;;27.59;38.83
40117;BME280;25829;50.228;18.936;2022-07-29T10:28:17;98658.13;;;27.43;39.55
40117;BME280;25829;50.228;18.936;2022-07-29T10:31:47;98654.16;;;27.40;38.63
40117;BME280;25829;50.228;18.936;2022-07-29T10:35:22;98641.69;;;27.30;38.30
40117;BME280;25829;50.228;18.936;2022-07-29T10:42:16;98648.25;;;27.07;39.17
40117;BME280;25829;50.228;18.936;2022-07-29T10:45:18;98641.88;;;27.03;39.24
40117;BME280;25829;50.228;18.936;2022-07-29T10:48:19;98646.13;;;26.95;39.20
40117;BME280;25829;50.228;18.936;2022-07-29T10:51:19;98639.75;;;26.91;39.75
40117;BME280;25829;50.228;18.936;2022-07-29T10:57:37;98648.78;;;26.86;39.93
40117;BME280;25829;50.228;18.936;2022-07-29T11:00:40;98648.78;;;26.86;39.93
40117;BME280;25829;50.228;18.936;2022-07-29T11:17:03;98644.91;;;26.70;39.74
40117;BME280;25829;50.228;18.936;2022-07-29T11:23:35;98626.16;;;26.51;40.30
40117;BME280;25829;50.228;18.936;2022-07-29T11:26:37;98633.47;;;26.51;40.55
40117;BME280;25829;50.228;18.936;2022-07-29T11:32:49;98636.75;;;26.48;40.52
40117;BME280;25829;50.228;18.936;2022-07-29T11:36:14;98632.25;;;26.57;40.44
40117;BME280;25829;50.228;18.936;2022-07-29T11:39:26;98634.44;;;26.55;40.25
40117;BME280;25829;50.228;18.936;2022-07-29T11:45:45;98634.97;;;26.65;40.53
40117;BME280;25829;50.228;18.936;2022-07-29T11:48:46;98623.38;;;26.65;40.50
40117;BME280;25829;50.228;18.936;2022-07-29T11:51:57;98632.97;;;26.71;40.63
40117;BME280;25829;50.228;18.936;2022-07-29T11:55:01;98619.72;;;26.70;40.73
40117;BME280;25829;50.228;18.936;2022-07-29T11:58:03;98638.38;;;26.71;40.69
40117;BME280;25829;50.228;18.936;2022-07-29T12:01:03;98628.16;;;26.68;40.11
40117;BME280;25829;50.228;18.936;2022-07-29T12:04:05;98630.00;;;26.59;40.05
40117;BME280;25829;50.228;18.936;2022-07-29T12:07:10;98626.47;;;26.50;40.21
40117;BME280;25829;50.228;18.936;2022-07-29T12:10:11;98627.94;;;26.42;40.54
40117;BME280;25829;50.228;18.936;2022-07-29T12:13:12;98635.09;;;26.38;40.21
40117;BME280;25829;50.228;18.936;2022-07-29T12:16:13;98634.13;;;26.34;40.25
40117;BME280;25829;50.228;18.936;2022-07-29T12:19:14;98631.91;;;26.36;40.66
40117;BME280;25829;50.228;18.936;2022-07-29T12:22:27;98629.69;;;26.38;40.46
40117;BME280;25829;50.228;18.936;2022-07-29T12:25:33;98627.28;;;26.36;40.56
40117;BME280;25829;50.228;18.936;2022-07-29T12:28:38;98627.28;;;26.36;40.08
40117;BME280;25829;50.228;18.936;2022-07-29T12:31:42;98631.47;;;26.42;40.36
40117;BME280;25829;50.228;18.936;2022-07-29T12:34:46;98625.44;;;26.46;40.40
40117;BME280;25829;50.228;18.936;2022-07-29T12:37:48;98623.22;;;26.48;40.51
40117;BME280;25829;50.228;18.936;2022-07-29T12:40:51;98631.88;;;26.50;40.39
40117;BME280;25829;50.228;18.936;2022-07-29T12:43:53;98611.22;;;26.54;40.54
40117;BME280;25829;50.228;18.936;2022-07-29T12:47:02;98621.88;;;26.59;40.55
40117;BME280;25829;50.228;18.936;2022-07-29T12:50:19;98613.78;;;26.59;40.45
40117;BME280;25829;50.228;18.936;2022-07-29T12:53:23;98614.00;;;26.49;40.57
40117;BME280;25829;50.228;18.936;2022-07-29T12:56:24;98607.94;;;26.43;40.30
40117;BME280;25829;50.228;18.936;2022-07-29T12:59:25;98600.78;;;26.47;40.50
40117;BME280;25829;50.228;18.936;2022-07-29T13:02:26;98600.38;;;26.54;40.13
40117;BME280;25829;50.228;18.936;2022-07-29T13:05:43;98596.44;;;26.60;39.29
40117;BME280;25829;50.228;18.936;2022-07-29T13:08:59;98596.63;;;26.63;39.22
40117;BME280;25829;50.228;18.936;2022-07-29T13:12:06;98584.00;;;26.59;39.13
40117;BME280;25829;50.228;18.936;2022-07-29T13:15:14;98580.66;;;26.53;38.60
40117;BME280;25829;50.228;18.936;2022-07-29T13:18:30;98576.44;;;26.47;39.32
40117;BME280;25829;50.228;18.936;2022-07-29T13:21:35;98584.22;;;26.49;39.45
40117;BME280;25829;50.228;18.936;2022-07-29T13:27:58;98573.81;;;26.33;39.39
40117;BME280;25829;50.228;18.936;2022-07-29T13:31:00;98555.81;;;26.29;39.82
40117;BME280;25829;50.228;18.936;2022-07-29T13:37:59;98552.47;;;26.32;39.12
40117;BME280;25829;50.228;18.936;2022-07-29T13:45:01;98539.03;;;26.18;38.89
40117;BME280;25829;50.228;18.936;2022-07-29T13:48:14;98529.94;;;26.14;39.18
40117;BME280;25829;50.228;18.936;2022-07-29T13:51:18;98532.63;;;26.14;39.15
40117;BME280;25829;50.228;18.936;2022-07-29T14:06:43;98513.97;;;26.04;40.51
40117;BME280;25829;50.228;18.936;2022-07-29T14:09:44;98503.50;;;26.11;39.82
40117;BME280;25829;50.228;18.936;2022-07-29T14:12:50;98500.50;;;26.12;40.02
40117;BME280;25829;50.228;18.936;2022-07-29T14:16:01;98505.50;;;26.19;40.14
40117;BME280;25829;50.228;18.936;2022-07-29T14:19:24;98504.19;;;26.16;39.45
40117;BME280;25829;50.228;18.936;2022-07-29T14:28:00;98500.38;;;26.17;39.57
40117;BME280;25829;50.228;18.936;2022-07-29T14:32:25;98492.34;;;26.04;39.25
40117;BME280;25829;50.228;18.936;2022-07-29T14:51:56;98486.84;;;26.17;39.51
40117;BME280;25829;50.228;18.936;2022-07-29T14:55:06;98489.88;;;26.16;38.83
40117;BME280;25829;50.228;18.936;2022-07-29T15:03:03;98481.09;;;26.10;39.45
40117;BME280;25829;50.228;18.936;2022-07-29T15:14:46;98493.63;;;26.06;39.86
40117;BME280;25829;50.228;18.936;2022-07-29T15:22:26;98514.09;;;25.99;39.93
40117;BME280;25829;50.228;18.936;2022-07-29T15:25:27;98513.31;;;25.98;40.09
40117;BME280;25829;50.228;18.936;2022-07-29T15:28:28;98511.50;;;25.93;39.92
40117;BME280;25829;50.228;18.936;2022-07-29T15:31:28;98517.56;;;25.90;40.09
40117;BME280;25829;50.228;18.936;2022-07-29T15:34:29;98513.34;;;25.84;40.00
40117;BME280;25829;50.228;18.936;2022-07-29T15:37:30;98522.84;;;25.82;40.25
40117;BME280;25829;50.228;18.936;2022-07-29T15:40:31;98524.56;;;25.78;40.13
40117;BME280;25829;50.228;18.936;2022-07-29T15:43:32;98522.47;;;25.75;40.21
40117;BME280;25829;50.228;18.936;2022-07-29T15:46:33;98524.22;;;25.70;40.31
40117;BME280;25829;50.228;18.936;2022-07-29T15:49:52;98522.09;;;25.67;40.43
40117;BME280;25829;50.228;18.936;2022-07-29T15:52:53;98524.91;;;25.62;40.98
40117;BME280;25829;50.228;18.936;2022-07-29T15:55:53;98525.84;;;25.58;40.76
40117;BME280;25829;50.228;18.936;2022-07-29T15:58:55;98524.53;;;25.55;40.71
40117;BME280;25829;50.228;18.936;2022-07-29T16:01:56;98526.75;;;25.53;40.84
40117;BME280;25829;50.228;18.936;2022-07-29T16:04:56;98525.97;;;25.53;40.98
40117;BME280;25829;50.228;18.936;2022-07-29T16:07:57;98522.75;;;25.51;41.09
40117;BME280;25829;50.228;18.936;2022-07-29T16:10:59;98517.69;;;25.49;41.08
40117;BME280;25829;50.228;18.936;2022-07-29T16:14:00;98524.94;;;25.48;41.30
40117;BME280;25829;50.228;18.936;2022-07-29T16:17:01;98532.25;;;25.48;41.23
40117;BME280;25829;50.228;18.936;2022-07-29T16:20:03;98524.75;;;25.45;41.24
40117;BME280;25829;50.228;18.936;2022-07-29T16:23:06;98524.56;;;25.41;41.29
40117;BME280;25829;50.228;18.936;2022-07-29T16:26:09;98526.59;;;25.36;41.22
40117;BME280;25829;50.228;18.936;2022-07-29T16:29:09;98532.22;;;25.12;42.78
40117;BME280;25829;50.228;18.936;2022-07-29T16:32:10;98516.22;;;24.74;43.58
40117;BME280;25829;50.228;18.936;2022-07-29T16:35:11;98516.97;;;24.47;44.00
40117;BME280;25829;50.228;18.936;2022-07-29T16:38:12;98510.03;;;24.27;45.00
40117;BME280;25829;50.228;18.936;2022-07-29T16:41:13;98513.91;;;24.07;45.17
40117;BME280;25829;50.228;18.936;2022-07-29T16:44:14;98511.50;;;23.87;45.75
40117;BME280;25829;50.228;18.936;2022-07-29T16:47:15;98512.03;;;23.70;45.50
40117;BME280;25829;50.228;18.936;2022-07-29T16:50:16;98536.41;;;23.59;46.50
40117;BME280;25829;50.228;18.936;2022-07-29T16:53:17;98534.13;;;23.48;46.73
40117;BME280;25829;50.228;18.936;2022-07-29T16:56:17;98538.59;;;23.39;47.35
40117;BME280;25829;50.228;18.936;2022-07-29T16:59:18;98548.66;;;23.28;48.51
40117;BME280;25829;50.228;18.936;2022-07-29T17:02:19;98536.47;;;23.11;48.36
40117;BME280;25829;50.228;18.936;2022-07-29T17:05:20;98547.09;;;23.03;48.55
40117;BME280;25829;50.228;18.936;2022-07-29T17:08:21;98546.66;;;22.91;49.80
40117;BME280;25829;50.228;18.936;2022-07-29T17:11:23;98546.78;;;22.80;49.49
40117;BME280;25829;50.228;18.936;2022-07-29T17:14:27;98538.25;;;22.73;49.54
40117;BME280;25829;50.228;18.936;2022-07-29T17:17:28;98533.19;;;22.72;49.83
40117;BME280;25829;50.228;18.936;2022-07-29T17:20:29;98542.31;;;22.71;49.99
40117;BME280;25829;50.228;18.936;2022-07-29T17:23:32;98549.59;;;22.70;50.40
40117;BME280;25829;50.228;18.936;2022-07-29T17:26:33;98549.06;;;22.68;50.51
40117;BME280;25829;50.228;18.936;2022-07-29T17:29:33;98564.13;;;22.69;50.67
40117;BME280;25829;50.228;18.936;2022-07-29T17:32:34;98554.44;;;22.68;50.69
40117;BME280;25829;50.228;18.936;2022-07-29T17:35:39;98562.50;;;22.68;50.88
40117;BME280;25829;50.228;18.936;2022-07-29T17:39:05;98570.00;;;22.71;51.28
40117;BME280;25829;50.228;18.936;2022-07-29T17:42:11;98568.13;;;22.72;51.32
40117;BME280;25829;50.228;18.936;2022-07-29T17:45:12;98571.88;;;22.71;51.36
40117;BME280;25829;50.228;18.936;2022-07-29T17:48:13;98574.06;;;22.69;51.93
40117;BME280;25829;50.228;18.936;2022-07-29T17:51:13;98573.84;;;22.65;52.27
40117;BME280;25829;50.228;18.936;2022-07-29T17:54:14;98586.50;;;22.59;53.04
40117;BME280;25829;50.228;18.936;2022-07-29T17:57:15;98568.88;;;22.48;53.82
40117;BME280;25829;50.228;18.936;2022-07-29T18:00:16;98567.06;;;22.38;54.29
40117;BME280;25829;50.228;18.936;2022-07-29T18:03:17;98563.44;;;22.24;55.24
40117;BME280;25829;50.228;18.936;2022-07-29T18:06:18;98561.09;;;22.12;56.03
40117;BME280;25829;50.228;18.936;2022-07-29T18:09:19;98554.66;;;22.08;56.96
40117;BME280;25829;50.228;18.936;2022-07-29T18:12:19;98557.97;;;22.00;57.82
40117;BME280;25829;50.228;18.936;2022-07-29T18:15:20;98548.34;;;21.94;58.56
40117;BME280;25829;50.228;18.936;2022-07-29T18:18:22;98554.28;;;21.86;58.97
40117;BME280;25829;50.228;18.936;2022-07-29T18:21:23;98554.59;;;21.79;59.75
40117;BME280;25829;50.228;18.936;2022-07-29T18:24:23;98553.00;;;21.73;60.16
40117;BME280;25829;50.228;18.936;2022-07-29T18:27:26;98553.84;;;21.68;60.32
40117;BME280;25829;50.228;18.936;2022-07-29T18:30:28;98551.78;;;21.55;60.73
40117;BME280;25829;50.228;18.936;2022-07-29T18:33:29;98549.47;;;21.38;62.79
40117;BME280;25829;50.228;18.936;2022-07-29T18:36:31;98548.19;;;21.20;62.56
40117;BME280;25829;50.228;18.936;2022-07-29T18:39:32;98555.16;;;21.16;62.73
40117;BME280;25829;50.228;18.936;2022-07-29T18:42:33;98547.13;;;21.16;62.82
40117;BME280;25829;50.228;18.936;2022-07-29T18:45:34;98550.84;;;21.15;62.75
40117;BME280;25829;50.228;18.936;2022-07-29T18:48:35;98552.75;;;21.15;63.09
40117;BME280;25829;50.228;18.936;2022-07-29T18:51:35;98553.03;;;21.13;63.13
40117;BME280;25829;50.228;18.936;2022-07-29T18:54:36;98552.22;;;21.13;63.37
40117;BME280;25829;50.228;18.936;2022-07-29T18:57:37;98554.91;;;21.13;63.48
40117;BME280;25829;50.228;18.936;2022-07-29T19:00:38;98564.00;;;21.12;63.50
40117;BME280;25829;50.228;18.936;2022-07-29T19:03:39;98569.66;;;21.10;63.38
40117;BME280;25829;50.228;18.936;2022-07-29T19:06:39;98565.38;;;21.09;63.26
40117;BME280;25829;50.228;18.936;2022-07-29T19:09:40;98567.25;;;21.09;63.32
40117;BME280;25829;50.228;18.936;2022-07-29T19:12:42;98578.25;;;21.07;63.15
40117;BME280;25829;50.228;18.936;2022-07-29T19:15:43;98590.34;;;21.05;62.80
40117;BME280;25829;50.228;18.936;2022-07-29T19:19:35;98601.34;;;20.98;65.04
40117;BME280;25829;50.228;18.936;2022-07-29T19:33:35;98597.66;;;20.79;65.05
40117;BME280;25829;50.228;18.936;2022-07-29T19:37:59;98615.06;;;20.76;64.86
40117;BME280;25829;50.228;18.936;2022-07-29T19:41:31;98609.72;;;20.71;64.26